Aviation Digital Data Service (ADDS)

Output produced by METARs form (0747 UTC 18 February 2019)
found at http://www.aviationweather.gov/metar/data/
 
METAR text: KBNA 180713Z 31007KT 10SM FEW017 SCT023 OVC034 05/01 A3006 RMK AO2 T00500011 $
Conditions at: KBNA (NASHVILLE , TN, US) observed 0713 UTC 18 February 2019
Temperature: 5.0°C (41°F)
Dewpoint: 1.1°C (34°F) [RH = 76%]
Pressure (altimeter): 30.06 inches Hg (1018.0 mb)
Winds: from the NW (310 degrees) at 8 MPH (7 knots; 3.6 m/s)
Visibility: 10 or more miles (16+ km)
Ceiling: 3400 feet AGL
Clouds: few clouds at 1700 feet AGL
scattered clouds at 2300 feet AGL
overcast cloud deck at 3400 feet AGL
Weather:
SOME DATA ABOVE MAY BE INACCURATE!!!
"$" is an indication the sensor requires maintenance

METAR text: KBNA 180653Z 31007KT 10SM BKN018 OVC026 06/02 A3005 RMK AO2 SLP177 T00560017 $
Conditions at: KBNA (NASHVILLE , TN, US) observed 0653 UTC 18 February 2019
Temperature: 5.6°C (42°F)
Dewpoint: 1.7°C (35°F) [RH = 76%]
Pressure (altimeter): 30.05 inches Hg (1017.7 mb)
[Sea-level pressure: 1017.7 mb]
Winds: from the NW (310 degrees) at 8 MPH (7 knots; 3.6 m/s)
Visibility: 10 or more miles (16+ km)
Ceiling: 1800 feet AGL
Clouds: broken clouds at 1800 feet AGL
overcast cloud deck at 2600 feet AGL
Weather:
SOME DATA ABOVE MAY BE INACCURATE!!!
"$" is an indication the sensor requires maintenance

METAR text: KBNA 180553Z 30006KT 10SM BKN018 OVC023 06/02 A3003 RMK AO2 SLP170 60016 T00560022 10078 20056 400940044 51027 $
Conditions at: KBNA (NASHVILLE , TN, US) observed 0553 UTC 18 February 2019
Temperature: 5.6°C (42°F)
Dewpoint: 2.2°C (36°F) [RH = 79%]
Pressure (altimeter): 30.03 inches Hg (1017.0 mb)
[Sea-level pressure: 1017.0 mb]
Winds: from the WNW (300 degrees) at 7 MPH (6 knots; 3.1 m/s)
Visibility: 10 or more miles (16+ km)
Ceiling: 1800 feet AGL
Clouds: broken clouds at 1800 feet AGL
overcast cloud deck at 2300 feet AGL
Weather:
SOME DATA ABOVE MAY BE INACCURATE!!!
"$" is an indication the sensor requires maintenance

METAR text: KBNA 180453Z 30007KT 10SM OVC018 06/02 A3000 RMK AO2 SLP159 T00560022 $
Conditions at: KBNA (NASHVILLE , TN, US) observed 0453 UTC 18 February 2019
Temperature: 5.6°C (42°F)
Dewpoint: 2.2°C (36°F) [RH = 79%]
Pressure (altimeter): 30.00 inches Hg (1016.0 mb)
[Sea-level pressure: 1015.9 mb]
Winds: from the WNW (300 degrees) at 8 MPH (7 knots; 3.6 m/s)
Visibility: 10 or more miles (16+ km)
Ceiling: 1800 feet AGL
Clouds: overcast cloud deck at 1800 feet AGL
Weather:
SOME DATA ABOVE MAY BE INACCURATE!!!
"$" is an indication the sensor requires maintenance

METAR text: KBNA 180422Z 29010KT 10SM OVC016 06/03 A2999 RMK AO2 PRESRR T00610028 $
Conditions at: KBNA (NASHVILLE , TN, US) observed 0422 UTC 18 February 2019
Temperature: 6.1°C (43°F)
Dewpoint: 2.8°C (37°F) [RH = 79%]
Pressure (altimeter): 29.99 inches Hg (1015.7 mb)
Winds: from the WNW (290 degrees) at 12 MPH (10 knots; 5.1 m/s)
Visibility: 10 or more miles (16+ km)
Ceiling: 1600 feet AGL
Clouds: overcast cloud deck at 1600 feet AGL
Weather:
SOME DATA ABOVE MAY BE INACCURATE!!!
"$" is an indication the sensor requires maintenance

METAR text: KBNA 180353Z 28006KT 10SM OVC012 06/03 A2999 RMK AO2 SLP155 T00610033 $
Conditions at: KBNA (NASHVILLE , TN, US) observed 0353 UTC 18 February 2019
Temperature: 6.1°C (43°F)
Dewpoint: 3.3°C (38°F) [RH = 82%]
Pressure (altimeter): 29.99 inches Hg (1015.7 mb)
[Sea-level pressure: 1015.5 mb]
Winds: from the W (280 degrees) at 7 MPH (6 knots; 3.1 m/s)
Visibility: 10 or more miles (16+ km)
Ceiling: 1200 feet AGL
Clouds: overcast cloud deck at 1200 feet AGL
Weather:
SOME DATA ABOVE MAY BE INACCURATE!!!
"$" is an indication the sensor requires maintenance

METAR text: KBNA 180253Z 31007KT 10SM OVC012 07/04 A2995 RMK AO2 SLP143 60016 T00670039 51030 $
Conditions at: KBNA (NASHVILLE , TN, US) observed 0253 UTC 18 February 2019
Temperature: 6.7°C (44°F)
Dewpoint: 3.9°C (39°F) [RH = 82%]
Pressure (altimeter): 29.95 inches Hg (1014.3 mb)
[Sea-level pressure: 1014.3 mb]
Winds: from the NW (310 degrees) at 8 MPH (7 knots; 3.6 m/s)
Visibility: 10 or more miles (16+ km)
Ceiling: 1200 feet AGL
Clouds: overcast cloud deck at 1200 feet AGL
Weather:
SOME DATA ABOVE MAY BE INACCURATE!!!
"$" is an indication the sensor requires maintenance

METAR text: KBNA 180153Z 28007KT 10SM FEW008 OVC013 07/05 A2994 RMK AO2 RAE25 SLP138 P0005 T00720050 $
Conditions at: KBNA (NASHVILLE , TN, US) observed 0153 UTC 18 February 2019
Temperature: 7.2°C (45°F)
Dewpoint: 5.0°C (41°F) [RH = 86%]
Pressure (altimeter): 29.94 inches Hg (1014.0 mb)
[Sea-level pressure: 1013.8 mb]
Winds: from the W (280 degrees) at 8 MPH (7 knots; 3.6 m/s)
Visibility: 10 or more miles (16+ km)
Ceiling: 1300 feet AGL
Clouds: few clouds at 800 feet AGL
overcast cloud deck at 1300 feet AGL
Weather:
SOME DATA ABOVE MAY BE INACCURATE!!!
"$" is an indication the sensor requires maintenance

METAR text: KBNA 180110Z 31008KT 7SM -RA SCT008 OVC013 07/05 A2989 RMK AO2 P0004 T00720050 $
Conditions at: KBNA (NASHVILLE , TN, US) observed 0110 UTC 18 February 2019
Temperature: 7.2°C (45°F)
Dewpoint: 5.0°C (41°F) [RH = 86%]
Pressure (altimeter): 29.89 inches Hg (1012.3 mb)
Winds: from the NW (310 degrees) at 9 MPH (8 knots; 4.1 m/s)
Visibility: 7 miles (11 km)
Ceiling: 1300 feet AGL
Clouds: scattered clouds at 800 feet AGL
overcast cloud deck at 1300 feet AGL
Weather: -RA  (light rain)
SOME DATA ABOVE MAY BE INACCURATE!!!
"$" is an indication the sensor requires maintenance

METAR text: KBNA 180053Z 31007KT 5SM RA BR BKN007 OVC014 07/06 A2989 RMK AO2 SLP121 P0011 T00720056 $
Conditions at: KBNA (NASHVILLE , TN, US) observed 0053 UTC 18 February 2019
Temperature: 7.2°C (45°F)
Dewpoint: 5.6°C (42°F) [RH = 90%]
Pressure (altimeter): 29.89 inches Hg (1012.3 mb)
[Sea-level pressure: 1012.1 mb]
Winds: from the NW (310 degrees) at 8 MPH (7 knots; 3.6 m/s)
Visibility: 5 miles ( 8 km)
Ceiling: 700 feet AGL
Clouds: broken clouds at 700 feet AGL
overcast cloud deck at 1400 feet AGL
Weather: RA BR  (moderate rain, mist)
SOME DATA ABOVE MAY BE INACCURATE!!!
"$" is an indication the sensor requires maintenance

METAR text: KBNA 180037Z 32005KT 5SM RA BR BKN007 BKN014 OVC040 08/06 A2988 RMK AO2 P0008 T00780056 $
Conditions at: KBNA (NASHVILLE , TN, US) observed 0037 UTC 18 February 2019
Temperature: 7.8°C (46°F)
Dewpoint: 5.6°C (42°F) [RH = 86%]
Pressure (altimeter): 29.88 inches Hg (1011.9 mb)
Winds: from the NW (320 degrees) at 6 MPH (5 knots; 2.6 m/s)
Visibility: 5 miles ( 8 km)
Ceiling: 700 feet AGL
Clouds: broken clouds at 700 feet AGL
broken clouds at 1400 feet AGL
overcast cloud deck at 4000 feet AGL
Weather: RA BR  (moderate rain, mist)
SOME DATA ABOVE MAY BE INACCURATE!!!
"$" is an indication the sensor requires maintenance

METAR text: KBNA 172353Z 28004KT 7SM -RA BKN010 BKN015 OVC040 08/06 A2986 RMK AO2 SLP112 P0008 60050 T00780056 10094 20078 53024 $
Conditions at: KBNA (NASHVILLE , TN, US) observed 2353 UTC 17 February 2019
Temperature: 7.8°C (46°F)
Dewpoint: 5.6°C (42°F) [RH = 86%]
Pressure (altimeter): 29.86 inches Hg (1011.3 mb)
[Sea-level pressure: 1011.2 mb]
Winds: from the W (280 degrees) at 5 MPH (4 knots; 2.1 m/s)
Visibility: 7 miles (11 km)
Ceiling: 1000 feet AGL
Clouds: broken clouds at 1000 feet AGL
broken clouds at 1500 feet AGL
overcast cloud deck at 4000 feet AGL
Weather: -RA  (light rain)
SOME DATA ABOVE MAY BE INACCURATE!!!
"$" is an indication the sensor requires maintenance

METAR text: KBNA 172253Z VRB05KT 6SM -RA BR OVC005 08/06 A2984 RMK AO2 RAB21 SLP104 P0001 T00830061 $
Conditions at: KBNA (NASHVILLE , TN, US) observed 2253 UTC 17 February 2019
Temperature: 8.3°C (47°F)
Dewpoint: 6.1°C (43°F) [RH = 86%]
Pressure (altimeter): 29.84 inches Hg (1010.6 mb)
[Sea-level pressure: 1010.4 mb]
Winds: variable direction winds at 6 MPH (5 knots; 2.6 m/s)
Visibility: 6 miles (10 km)
Ceiling: 500 feet AGL
Clouds: overcast cloud deck at 500 feet AGL
Weather: -RA BR  (light rain, mist)
SOME DATA ABOVE MAY BE INACCURATE!!!
"$" is an indication the sensor requires maintenance

METAR text: KBNA 172153Z 28010KT 10SM BKN007 OVC011 09/07 A2980 RMK AO2 RAE42 SLP091 P0010 T00890072 $
Conditions at: KBNA (NASHVILLE , TN, US) observed 2153 UTC 17 February 2019
Temperature: 8.9°C (48°F)
Dewpoint: 7.2°C (45°F) [RH = 89%]
Pressure (altimeter): 29.80 inches Hg (1009.2 mb)
[Sea-level pressure: 1009.1 mb]
Winds: from the W (280 degrees) at 12 MPH (10 knots; 5.1 m/s)
Visibility: 10 or more miles (16+ km)
Ceiling: 700 feet AGL
Clouds: broken clouds at 700 feet AGL
overcast cloud deck at 1100 feet AGL
Weather:
SOME DATA ABOVE MAY BE INACCURATE!!!
"$" is an indication the sensor requires maintenance

METAR text: KBNA 172053Z 30006KT 3SM RA BR BKN008 BKN015 OVC030 09/08 A2979 RMK AO2 SFC VIS 4 RAB1958 SLP087 P0026 60031 T00940078 55003 $
Conditions at: KBNA (NASHVILLE , TN, US) observed 2053 UTC 17 February 2019
Temperature: 9.4°C (49°F)
Dewpoint: 7.8°C (46°F) [RH = 90%]
Pressure (altimeter): 29.79 inches Hg (1008.9 mb)
[Sea-level pressure: 1008.7 mb]
Winds: from the WNW (300 degrees) at 7 MPH (6 knots; 3.1 m/s)
Visibility: 3 miles ( 5 km)
Ceiling: 800 feet AGL
Clouds: broken clouds at 800 feet AGL
broken clouds at 1500 feet AGL
overcast cloud deck at 3000 feet AGL
Weather: RA BR  (moderate rain, mist)
SOME DATA ABOVE MAY BE INACCURATE!!!
"$" is an indication the sensor requires maintenance

METAR text: KBNA 172038Z 21004KT 3SM RA BR BKN008 BKN015 OVC030 09/08 A2977 RMK AO2 RAB1958 P0021 T00940078 $
Conditions at: KBNA (NASHVILLE , TN, US) observed 2038 UTC 17 February 2019
Temperature: 9.4°C (49°F)
Dewpoint: 7.8°C (46°F) [RH = 90%]
Pressure (altimeter): 29.77 inches Hg (1008.2 mb)
Winds: from the SSW (210 degrees) at 5 MPH (4 knots; 2.1 m/s)
Visibility: 3 miles ( 5 km)
Ceiling: 800 feet AGL
Clouds: broken clouds at 800 feet AGL
broken clouds at 1500 feet AGL
overcast cloud deck at 3000 feet AGL
Weather: RA BR  (moderate rain, mist)
SOME DATA ABOVE MAY BE INACCURATE!!!
"$" is an indication the sensor requires maintenance

METAR text: KBNA 172023Z 24004KT 1 1/4SM R02L/5000VP6000FT +RA BR BKN009 BKN015 OVC025 09/08 A2977 RMK AO2 SFC VIS 1 3/4 RAB1958 P0011 T00890078 $
Conditions at: KBNA (NASHVILLE , TN, US) observed 2023 UTC 17 February 2019
Temperature: 8.9°C (48°F)
Dewpoint: 7.8°C (46°F) [RH = 93%]
Pressure (altimeter): 29.77 inches Hg (1008.2 mb)
Winds: from the WSW (240 degrees) at 5 MPH (4 knots; 2.1 m/s)
Visibility: 1.25 miles (2.01 km)
Ceiling: 900 feet AGL
Clouds: broken clouds at 900 feet AGL
broken clouds at 1500 feet AGL
overcast cloud deck at 2500 feet AGL
Weather: +RA BR  (heavy rain, mist)
SOME DATA ABOVE MAY BE INACCURATE!!!
"$" is an indication the sensor requires maintenance

METAR text: KBNA 172013Z 26004KT 1 3/4SM R02L/5000VP6000FT RA BR OVC007 09/08 A2976 RMK AO2 VIS 3/4V5 RAB1958 P0002 T00890078 $
Conditions at: KBNA (NASHVILLE , TN, US) observed 2013 UTC 17 February 2019
Temperature: 8.9°C (48°F)
Dewpoint: 7.8°C (46°F) [RH = 93%]
Pressure (altimeter): 29.76 inches Hg (1007.9 mb)
Winds: from the W (260 degrees) at 5 MPH (4 knots; 2.1 m/s)
Visibility: 1.75 miles (2.82 km)
Ceiling: 700 feet AGL
Clouds: overcast cloud deck at 700 feet AGL
Weather: RA BR  (moderate rain, mist)
SOME DATA ABOVE MAY BE INACCURATE!!!
"$" is an indication the sensor requires maintenance

METAR text: KBNA 171953Z 30005KT 10SM BKN007 OVC011 09/07 A2976 RMK AO2 RAB22E52 SLP078 P0005 T00940072 $
Conditions at: KBNA (NASHVILLE , TN, US) observed 1953 UTC 17 February 2019
Temperature: 9.4°C (49°F)
Dewpoint: 7.2°C (45°F) [RH = 86%]
Pressure (altimeter): 29.76 inches Hg (1007.9 mb)
[Sea-level pressure: 1007.8 mb]
Winds: from the WNW (300 degrees) at 6 MPH (5 knots; 2.6 m/s)
Visibility: 10 or more miles (16+ km)
Ceiling: 700 feet AGL
Clouds: broken clouds at 700 feet AGL
overcast cloud deck at 1100 feet AGL
Weather:
SOME DATA ABOVE MAY BE INACCURATE!!!
"$" is an indication the sensor requires maintenance

METAR text: KBNA 171934Z 26004KT 3SM R02L/5500VP6000FT -RA BR BKN010 OVC016 09/07 A2977 RMK AO2 TWR VIS 5 RAB22 P0004 T00890072 $
Conditions at: KBNA (NASHVILLE , TN, US) observed 1934 UTC 17 February 2019
Temperature: 8.9°C (48°F)
Dewpoint: 7.2°C (45°F) [RH = 89%]
Pressure (altimeter): 29.77 inches Hg (1008.2 mb)
Winds: from the W (260 degrees) at 5 MPH (4 knots; 2.1 m/s)
Visibility: 3 miles ( 5 km)
Ceiling: 1000 feet AGL
Clouds: broken clouds at 1000 feet AGL
overcast cloud deck at 1600 feet AGL
Weather: -RA BR  (light rain, mist)
SOME DATA ABOVE MAY BE INACCURATE!!!
"$" is an indication the sensor requires maintenance

METAR text: KBNA 171931Z 26003KT 1 3/4SM R02L/5500VP6000FT -RA BR BKN013 OVC018 09/07 A2976 RMK AO2 TWR VIS 5 VIS 1/2V5 RAB22 P0004 T00890072 $
Conditions at: KBNA (NASHVILLE , TN, US) observed 1931 UTC 17 February 2019
Temperature: 8.9°C (48°F)
Dewpoint: 7.2°C (45°F) [RH = 89%]
Pressure (altimeter): 29.76 inches Hg (1007.9 mb)
Winds: from the W (260 degrees) at 3 MPH (3 knots; 1.5 m/s)
Visibility: 1.75 miles (2.82 km)
Ceiling: 1300 feet AGL
Clouds: broken clouds at 1300 feet AGL
overcast cloud deck at 1800 feet AGL
Weather: -RA BR  (light rain, mist)
SOME DATA ABOVE MAY BE INACCURATE!!!
"$" is an indication the sensor requires maintenance

METAR text: KBNA 171925Z 27003KT 1 1/4SM R02L/6000VP6000FT RA BR SCT010 OVC016 09/07 A2976 RMK AO2 VIS 1/2V5 RAB22 P0000 T00890072
Conditions at: KBNA (NASHVILLE , TN, US) observed 1925 UTC 17 February 2019
Temperature: 8.9°C (48°F)
Dewpoint: 7.2°C (45°F) [RH = 89%]
Pressure (altimeter): 29.76 inches Hg (1007.9 mb)
Winds: from the W (270 degrees) at 3 MPH (3 knots; 1.5 m/s)
Visibility: 1.25 miles (2.01 km)
Ceiling: 1600 feet AGL
Clouds: scattered clouds at 1000 feet AGL
overcast cloud deck at 1600 feet AGL
Weather: RA BR  (moderate rain, mist)

METAR text: KBNA 171921Z 26003KT 2 1/2SM BR SCT010 OVC016 09/07 A2976 RMK AO2 T00940072
Conditions at: KBNA (NASHVILLE , TN, US) observed 1921 UTC 17 February 2019
Temperature: 9.4°C (49°F)
Dewpoint: 7.2°C (45°F) [RH = 86%]
Pressure (altimeter): 29.76 inches Hg (1007.9 mb)
Winds: from the W (260 degrees) at 3 MPH (3 knots; 1.5 m/s)
Visibility: 2.50 miles (4.02 km)
Ceiling: 1600 feet AGL
Clouds: scattered clouds at 1000 feet AGL
overcast cloud deck at 1600 feet AGL
Weather: BR  (mist)

METAR text: KBNA 171853Z 00000KT 10SM OVC016 09/07 A2977 RMK AO2 LTG DSNT SE RAB16E26 SLP082 P0000 T00890072
Conditions at: KBNA (NASHVILLE , TN, US) observed 1853 UTC 17 February 2019
Temperature: 8.9°C (48°F)
Dewpoint: 7.2°C (45°F) [RH = 89%]
Pressure (altimeter): 29.77 inches Hg (1008.2 mb)
[Sea-level pressure: 1008.2 mb]
Winds: calm
Visibility: 10 or more miles (16+ km)
Ceiling: 1600 feet AGL
Clouds: overcast cloud deck at 1600 feet AGL
Weather: no significant weather observed at this time

METAR text: KBNA 171820Z 00000KT 8SM -RA SCT004 SCT014 OVC020 09/07 A2978 RMK AO2 LTG DSNT SW RAB16 P0000 T00890072
Conditions at: KBNA (NASHVILLE , TN, US) observed 1820 UTC 17 February 2019
Temperature: 8.9°C (48°F)
Dewpoint: 7.2°C (45°F) [RH = 89%]
Pressure (altimeter): 29.78 inches Hg (1008.5 mb)
Winds: calm
Visibility: 8 miles (13 km)
Ceiling: 2000 feet AGL
Clouds: scattered clouds at 400 feet AGL
scattered clouds at 1400 feet AGL
overcast cloud deck at 2000 feet AGL
Weather: -RA  (light rain)

METAR text: KBNA 171753Z 00000KT 8SM BKN004 OVC014 08/06 A2980 RMK AO2 RAE31 SLP090 P0001 60023 T00830061 10083 20061 58004
Conditions at: KBNA (NASHVILLE , TN, US) observed 1753 UTC 17 February 2019
Temperature: 8.3°C (47°F)
Dewpoint: 6.1°C (43°F) [RH = 86%]
Pressure (altimeter): 29.80 inches Hg (1009.2 mb)
[Sea-level pressure: 1009.0 mb]
Winds: calm
Visibility: 8 miles (13 km)
Ceiling: 400 feet AGL
Clouds: broken clouds at 400 feet AGL
overcast cloud deck at 1400 feet AGL
Weather: no significant weather observed at this time

METAR text: KBNA 171728Z 00000KT 8SM -RA SCT003 OVC014 08/06 A2980 RMK AO2 P0001 T00780061
Conditions at: KBNA (NASHVILLE , TN, US) observed 1728 UTC 17 February 2019
Temperature: 7.8°C (46°F)
Dewpoint: 6.1°C (43°F) [RH = 89%]
Pressure (altimeter): 29.80 inches Hg (1009.2 mb)
Winds: calm
Visibility: 8 miles (13 km)
Ceiling: 1400 feet AGL
Clouds: scattered clouds at 300 feet AGL
overcast cloud deck at 1400 feet AGL
Weather: -RA  (light rain)

METAR text: KBNA 171718Z 00000KT 6SM -RA BR BKN003 OVC014 08/06 A2980 RMK AO2 P0001 T00780061
Conditions at: KBNA (NASHVILLE , TN, US) observed 1718 UTC 17 February 2019
Temperature: 7.8°C (46°F)
Dewpoint: 6.1°C (43°F) [RH = 89%]
Pressure (altimeter): 29.80 inches Hg (1009.2 mb)
Winds: calm
Visibility: 6 miles (10 km)
Ceiling: 300 feet AGL
Clouds: broken clouds at 300 feet AGL
overcast cloud deck at 1400 feet AGL
Weather: -RA BR  (light rain, mist)

METAR text: KBNA 171700Z 18003KT 2SM -RA BR BKN004 BKN007 OVC028 08/07 A2980 RMK AO2 SFC VIS 6 P0001 T00780067
Conditions at: KBNA (NASHVILLE , TN, US) observed 1700 UTC 17 February 2019
Temperature: 7.8°C (46°F)
Dewpoint: 6.7°C (44°F) [RH = 93%]
Pressure (altimeter): 29.80 inches Hg (1009.2 mb)
Winds: from the S (180 degrees) at 3 MPH (3 knots; 1.5 m/s)
Visibility: 2.00 miles (3.22 km)
Ceiling: 400 feet AGL
Clouds: broken clouds at 400 feet AGL
broken clouds at 700 feet AGL
overcast cloud deck at 2800 feet AGL
Weather: -RA BR  (light rain, mist)

METAR text: KBNA 171653Z 16004KT 2SM -RA BR SCT004 BKN015 OVC028 07/06 A2980 RMK AO2 SFC VIS 4 RAB10 PRESFR SLP091 P0006 T00720061
Conditions at: KBNA (NASHVILLE , TN, US) observed 1653 UTC 17 February 2019
Temperature: 7.2°C (45°F)
Dewpoint: 6.1°C (43°F) [RH = 93%]
Pressure (altimeter): 29.80 inches Hg (1009.2 mb)
[Sea-level pressure: 1009.1 mb]
Winds: from the SSE (160 degrees) at 5 MPH (4 knots; 2.1 m/s)
Visibility: 2.00 miles (3.22 km)
Ceiling: 1500 feet AGL
Clouds: scattered clouds at 400 feet AGL
broken clouds at 1500 feet AGL
overcast cloud deck at 2800 feet AGL
Weather: -RA BR  (light rain, mist)

METAR text: KBNA 171553Z 00000KT 1SM R02L/5500VP6000FT BR OVC004 07/06 A2981 RMK AO2 SFC VIS 1 1/2 SLP095 P0001 T00670056
Conditions at: KBNA (NASHVILLE , TN, US) observed 1553 UTC 17 February 2019
Temperature: 6.7°C (44°F)
Dewpoint: 5.6°C (42°F) [RH = 93%]
Pressure (altimeter): 29.81 inches Hg (1009.6 mb)
[Sea-level pressure: 1009.5 mb]
Winds: calm
Visibility: 1.00 miles (1.61 km)
Ceiling: 400 feet AGL
Clouds: overcast cloud deck at 400 feet AGL
Weather: BR  (mist)

METAR text: KBNA 171531Z 00000KT 1SM R02L/6000VP6000FT BR BKN003 OVC007 07/05 A2980 RMK AO2 SFC VIS 1 1/2 P0001 T00670050
Conditions at: KBNA (NASHVILLE , TN, US) observed 1531 UTC 17 February 2019
Temperature: 6.7°C (44°F)
Dewpoint: 5.0°C (41°F) [RH = 89%]
Pressure (altimeter): 29.80 inches Hg (1009.2 mb)
Winds: calm
Visibility: 1.00 miles (1.61 km)
Ceiling: 300 feet AGL
Clouds: broken clouds at 300 feet AGL
overcast cloud deck at 700 feet AGL
Weather: BR  (mist)

METAR text: KBNA 171502Z VRB03KT 1/2SM R02L/6000VP6000FT BR BKN003 OVC007 07/05 A2980 RMK AO2 SFC VIS 1 1/4 P0001 T00670050
Conditions at: KBNA (NASHVILLE , TN, US) observed 1502 UTC 17 February 2019
Temperature: 6.7°C (44°F)
Dewpoint: 5.0°C (41°F) [RH = 89%]
Pressure (altimeter): 29.80 inches Hg (1009.2 mb)
Winds: variable direction winds at 3 MPH (3 knots; 1.5 m/s)
Visibility: 0.50 miles (0.80 km)
Ceiling: 300 feet AGL
Clouds: broken clouds at 300 feet AGL
overcast cloud deck at 700 feet AGL
Weather: BR  (mist)

METAR text: KBNA 171453Z VRB03KT 1/2SM R02L/6000VP6000FT BR OVC005 06/04 A2981 RMK AO2 SFC VIS 1 1/2 RAE26 SLP096 P0000 60015 T00610044 53013
Conditions at: KBNA (NASHVILLE , TN, US) observed 1453 UTC 17 February 2019
Temperature: 6.1°C (43°F)
Dewpoint: 4.4°C (40°F) [RH = 89%]
Pressure (altimeter): 29.81 inches Hg (1009.6 mb)
[Sea-level pressure: 1009.6 mb]
Winds: variable direction winds at 3 MPH (3 knots; 1.5 m/s)
Visibility: 0.50 miles (0.80 km)
Ceiling: 500 feet AGL
Clouds: overcast cloud deck at 500 feet AGL
Weather: BR  (mist)

METAR text: KBNA 171411Z 09004KT 1/2SM R02L/5500VP6000FT -RA BR BKN002 OVC006 06/04 A2978 RMK AO2 SFC VIS 1 P0000 T00610044
Conditions at: KBNA (NASHVILLE , TN, US) observed 1411 UTC 17 February 2019
Temperature: 6.1°C (43°F)
Dewpoint: 4.4°C (40°F) [RH = 89%]
Pressure (altimeter): 29.78 inches Hg (1008.5 mb)
Winds: from the E (90 degrees) at 5 MPH (4 knots; 2.1 m/s)
Visibility: 0.50 miles (0.80 km)
Ceiling: 200 feet AGL
Clouds: broken clouds at 200 feet AGL
overcast cloud deck at 600 feet AGL
Weather: -RA BR  (light rain, mist)

METAR text: KBNA 171353Z 03004KT 1SM R02L/4500V5500FT -RA BR OVC003 06/04 A2979 RMK AO2 DZE1254B44E47RAB04E16B47 SLP088 P0003 T00610044
Conditions at: KBNA (NASHVILLE , TN, US) observed 1353 UTC 17 February 2019
Temperature: 6.1°C (43°F)
Dewpoint: 4.4°C (40°F) [RH = 89%]
Pressure (altimeter): 29.79 inches Hg (1008.9 mb)
[Sea-level pressure: 1008.8 mb]
Winds: from the NNE (30 degrees) at 5 MPH (4 knots; 2.1 m/s)
Visibility: 1.00 miles (1.61 km)
Ceiling: 300 feet AGL
Clouds: overcast cloud deck at 300 feet AGL
Weather: -RA BR  (light rain, mist)

METAR text: KBNA 171323Z 06003KT 1SM R02L/P6000FT BR OVC004 06/04 A2978 RMK AO2 SFC VIS 2 DZE1254RAB04E16 P0002 T00610044
Conditions at: KBNA (NASHVILLE , TN, US) observed 1323 UTC 17 February 2019
Temperature: 6.1°C (43°F)
Dewpoint: 4.4°C (40°F) [RH = 89%]
Pressure (altimeter): 29.78 inches Hg (1008.5 mb)
Winds: from the ENE (60 degrees) at 3 MPH (3 knots; 1.5 m/s)
Visibility: 1.00 miles (1.61 km)
Ceiling: 400 feet AGL
Clouds: overcast cloud deck at 400 feet AGL
Weather: BR  (mist)

METAR text: KBNA 171312Z 36004KT 2SM -RA BR OVC004 06/04 A2978 RMK AO2 SFC VIS 3 DZE1254RAB04 P0002 T00610044
Conditions at: KBNA (NASHVILLE , TN, US) observed 1312 UTC 17 February 2019
Temperature: 6.1°C (43°F)
Dewpoint: 4.4°C (40°F) [RH = 89%]
Pressure (altimeter): 29.78 inches Hg (1008.5 mb)
Winds: from the N (360 degrees) at 5 MPH (4 knots; 2.1 m/s)
Visibility: 2.00 miles (3.22 km)
Ceiling: 400 feet AGL
Clouds: overcast cloud deck at 400 feet AGL
Weather: -RA BR  (light rain, mist)

METAR text: KBNA 171253Z 35004KT 7SM -DZ BKN004 OVC012 06/04 A2978 RMK AO2 RAE46DZB46 SLP085 P0012 T00610044
Conditions at: KBNA (NASHVILLE , TN, US) observed 1253 UTC 17 February 2019
Temperature: 6.1°C (43°F)
Dewpoint: 4.4°C (40°F) [RH = 89%]
Pressure (altimeter): 29.78 inches Hg (1008.5 mb)
[Sea-level pressure: 1008.5 mb]
Winds: from the N (350 degrees) at 5 MPH (4 knots; 2.1 m/s)
Visibility: 7 miles (11 km)
Ceiling: 400 feet AGL
Clouds: broken clouds at 400 feet AGL
overcast cloud deck at 1200 feet AGL
Weather: -DZ  (light drizzle)

METAR text: KBNA 171242Z 11003KT 6SM -RA BR FEW004 OVC014 06/04 A2977 RMK AO2 P0012 T00560044
Conditions at: KBNA (NASHVILLE , TN, US) observed 1242 UTC 17 February 2019
Temperature: 5.6°C (42°F)
Dewpoint: 4.4°C (40°F) [RH = 92%]
Pressure (altimeter): 29.77 inches Hg (1008.2 mb)
Winds: from the ESE (110 degrees) at 3 MPH (3 knots; 1.5 m/s)
Visibility: 6 miles (10 km)
Ceiling: 1400 feet AGL
Clouds: few clouds at 400 feet AGL
overcast cloud deck at 1400 feet AGL
Weather: -RA BR  (light rain, mist)

METAR text: KBNA 171235Z 10003KT 4SM RA BR SCT004 BKN008 OVC014 06/04 A2977 RMK AO2 P0012 T00560044
Conditions at: KBNA (NASHVILLE , TN, US) observed 1235 UTC 17 February 2019
Temperature: 5.6°C (42°F)
Dewpoint: 4.4°C (40°F) [RH = 92%]
Pressure (altimeter): 29.77 inches Hg (1008.2 mb)
Winds: from the E (100 degrees) at 3 MPH (3 knots; 1.5 m/s)
Visibility: 4 miles ( 6 km)
Ceiling: 800 feet AGL
Clouds: scattered clouds at 400 feet AGL
broken clouds at 800 feet AGL
overcast cloud deck at 1400 feet AGL
Weather: RA BR  (moderate rain, mist)

METAR text: KBNA 171209Z 00000KT 3SM R02L/6000VP6000FT RA BR FEW003 BKN013 OVC024 06/04 A2978 RMK AO2 P0008 T00560044
Conditions at: KBNA (NASHVILLE , TN, US) observed 1209 UTC 17 February 2019
Temperature: 5.6°C (42°F)
Dewpoint: 4.4°C (40°F) [RH = 92%]
Pressure (altimeter): 29.78 inches Hg (1008.5 mb)
Winds: calm
Visibility: 3 miles ( 5 km)
Ceiling: 1300 feet AGL
Clouds: few clouds at 300 feet AGL
broken clouds at 1300 feet AGL
overcast cloud deck at 2400 feet AGL
Weather: RA BR  (moderate rain, mist)

METAR text: KBNA 171159Z 00000KT 1 3/4SM R02L/2000VP6000FT +RA BR FEW005 BKN013 OVC019 06/04 A2977 RMK AO2 P0005 T00560044
Conditions at: KBNA (NASHVILLE , TN, US) observed 1159 UTC 17 February 2019
Temperature: 5.6°C (42°F)
Dewpoint: 4.4°C (40°F) [RH = 92%]
Pressure (altimeter): 29.77 inches Hg (1008.2 mb)
Winds: calm
Visibility: 1.75 miles (2.82 km)
Ceiling: 1300 feet AGL
Clouds: few clouds at 500 feet AGL
broken clouds at 1300 feet AGL
overcast cloud deck at 1900 feet AGL
Weather: +RA BR  (heavy rain, mist)

METAR text: KBNA 171153Z 00000KT 3SM -RA BR FEW007 BKN013 OVC021 06/04 A2977 RMK AO2 SLP081 P0037 60060 70060 T00560044 10056 20044 51006
Conditions at: KBNA (NASHVILLE , TN, US) observed 1153 UTC 17 February 2019
Temperature: 5.6°C (42°F)
Dewpoint: 4.4°C (40°F) [RH = 92%]
Pressure (altimeter): 29.77 inches Hg (1008.2 mb)
[Sea-level pressure: 1008.1 mb]
Winds: calm
Visibility: 3 miles ( 5 km)
Ceiling: 1300 feet AGL
Clouds: few clouds at 700 feet AGL
broken clouds at 1300 feet AGL
overcast cloud deck at 2100 feet AGL
Weather: -RA BR  (light rain, mist)

METAR text: KBNA 171150Z 00000KT 3SM -RA BR SCT012 BKN020 OVC026 06/04 A2976 RMK AO2 P0037
Conditions at: KBNA (NASHVILLE , TN, US) observed 1150 UTC 17 February 2019
Temperature: 6.0°C (43°F)
Dewpoint: 4.0°C (39°F) [RH = 87%]
Pressure (altimeter): 29.76 inches Hg (1007.9 mb)
Winds: calm
Visibility: 3 miles ( 5 km)
Ceiling: 2000 feet AGL
Clouds: scattered clouds at 1200 feet AGL
broken clouds at 2000 feet AGL
overcast cloud deck at 2600 feet AGL
Weather: -RA BR  (light rain, mist)

METAR text: KBNA 171146Z 08004KT 1 1/2SM R02L/5500VP6000FT +RA BR FEW007 BKN021 OVC030 06/04 A2976 RMK AO2 P0036 T00560039
Conditions at: KBNA (NASHVILLE , TN, US) observed 1146 UTC 17 February 2019
Temperature: 5.6°C (42°F)
Dewpoint: 3.9°C (39°F) [RH = 89%]
Pressure (altimeter): 29.76 inches Hg (1007.9 mb)
Winds: from the E (80 degrees) at 5 MPH (4 knots; 2.1 m/s)
Visibility: 1.50 miles (2.41 km)
Ceiling: 2100 feet AGL
Clouds: few clouds at 700 feet AGL
broken clouds at 2100 feet AGL
overcast cloud deck at 3000 feet AGL
Weather: +RA BR  (heavy rain, mist)

METAR text: KBNA 171139Z 10003KT 2SM R02L/5500VP6000FT +RA BR FEW007 BKN017 OVC024 06/04 A2977 RMK AO2 LTG DSNT S P0023 T00560039
Conditions at: KBNA (NASHVILLE , TN, US) observed 1139 UTC 17 February 2019
Temperature: 5.6°C (42°F)
Dewpoint: 3.9°C (39°F) [RH = 89%]
Pressure (altimeter): 29.77 inches Hg (1008.2 mb)
Winds: from the E (100 degrees) at 3 MPH (3 knots; 1.5 m/s)
Visibility: 2.00 miles (3.22 km)
Ceiling: 1700 feet AGL
Clouds: few clouds at 700 feet AGL
broken clouds at 1700 feet AGL
overcast cloud deck at 2400 feet AGL
Weather: +RA BR  (heavy rain, mist)

METAR text: KBNA 171129Z 11003KT 4SM -RA BR FEW015 SCT027 OVC033 06/04 A2977 RMK AO2 LTG DSNT S P0021 T00560039
Conditions at: KBNA (NASHVILLE , TN, US) observed 1129 UTC 17 February 2019
Temperature: 5.6°C (42°F)
Dewpoint: 3.9°C (39°F) [RH = 89%]
Pressure (altimeter): 29.77 inches Hg (1008.2 mb)
Winds: from the ESE (110 degrees) at 3 MPH (3 knots; 1.5 m/s)
Visibility: 4 miles ( 6 km)
Ceiling: 3300 feet AGL
Clouds: few clouds at 1500 feet AGL
scattered clouds at 2700 feet AGL
overcast cloud deck at 3300 feet AGL
Weather: -RA BR  (light rain, mist)

METAR text: KBNA 171109Z 00000KT 2 1/2SM RA BR SCT009 BKN030 OVC035 06/04 A2977 RMK AO2 P0011 T00560039
Conditions at: KBNA (NASHVILLE , TN, US) observed 1109 UTC 17 February 2019
Temperature: 5.6°C (42°F)
Dewpoint: 3.9°C (39°F) [RH = 89%]
Pressure (altimeter): 29.77 inches Hg (1008.2 mb)
Winds: calm
Visibility: 2.50 miles (4.02 km)
Ceiling: 3000 feet AGL
Clouds: scattered clouds at 900 feet AGL
broken clouds at 3000 feet AGL
overcast cloud deck at 3500 feet AGL
Weather: RA BR  (moderate rain, mist)

METAR text: KBNA 171104Z 00000KT 3SM RA BR SCT009 BKN022 OVC037 05/04 A2976 RMK AO2 P0009 T00500039
Conditions at: KBNA (NASHVILLE , TN, US) observed 1104 UTC 17 February 2019
Temperature: 5.0°C (41°F)
Dewpoint: 3.9°C (39°F) [RH = 93%]
Pressure (altimeter): 29.76 inches Hg (1007.9 mb)
Winds: calm
Visibility: 3 miles ( 5 km)
Ceiling: 2200 feet AGL
Clouds: scattered clouds at 900 feet AGL
broken clouds at 2200 feet AGL
overcast cloud deck at 3700 feet AGL
Weather: RA BR  (moderate rain, mist)

METAR text: KBNA 171053Z 14005KT 2 1/2SM RA BR BKN010 OVC017 05/04 A2976 RMK AO2 SLP079 P0016 T00500039
Conditions at: KBNA (NASHVILLE , TN, US) observed 1053 UTC 17 February 2019
Temperature: 5.0°C (41°F)
Dewpoint: 3.9°C (39°F) [RH = 93%]
Pressure (altimeter): 29.76 inches Hg (1007.9 mb)
[Sea-level pressure: 1007.9 mb]
Winds: from the SE (140 degrees) at 6 MPH (5 knots; 2.6 m/s)
Visibility: 2.50 miles (4.02 km)
Ceiling: 1000 feet AGL
Clouds: broken clouds at 1000 feet AGL
overcast cloud deck at 1700 feet AGL
Weather: RA BR  (moderate rain, mist)

METAR text: KBNA 171048Z 17003KT 4SM RA BR BKN010 OVC014 05/04 A2977 RMK AO2 P0015
Conditions at: KBNA (NASHVILLE , TN, US) observed 1048 UTC 17 February 2019
Temperature: 5.0°C (41°F)
Dewpoint: 4.0°C (39°F) [RH = 93%]
Pressure (altimeter): 29.77 inches Hg (1008.2 mb)
Winds: from the S (170 degrees) at 3 MPH (3 knots; 1.5 m/s)
Visibility: 4 miles ( 6 km)
Ceiling: 1000 feet AGL
Clouds: broken clouds at 1000 feet AGL
overcast cloud deck at 1400 feet AGL
Weather: RA BR  (moderate rain, mist)

METAR text: KBNA 171040Z 11006KT 2 1/2SM RA BR BKN011 OVC014 05/03 A2975 RMK AO2 P0013 T00500033
Conditions at: KBNA (NASHVILLE , TN, US) observed 1040 UTC 17 February 2019
Temperature: 5.0°C (41°F)
Dewpoint: 3.3°C (38°F) [RH = 89%]
Pressure (altimeter): 29.75 inches Hg (1007.5 mb)
Winds: from the ESE (110 degrees) at 7 MPH (6 knots; 3.1 m/s)
Visibility: 2.50 miles (4.02 km)
Ceiling: 1100 feet AGL
Clouds: broken clouds at 1100 feet AGL
overcast cloud deck at 1400 feet AGL
Weather: RA BR  (moderate rain, mist)

METAR text: KBNA 170953Z 06005KT 3SM -RA BR OVC010 05/03 A2975 RMK AO2 RAB05 SLP075 P0007 T00500033
Conditions at: KBNA (NASHVILLE , TN, US) observed 0953 UTC 17 February 2019
Temperature: 5.0°C (41°F)
Dewpoint: 3.3°C (38°F) [RH = 89%]
Pressure (altimeter): 29.75 inches Hg (1007.5 mb)
[Sea-level pressure: 1007.5 mb]
Winds: from the ENE (60 degrees) at 6 MPH (5 knots; 2.6 m/s)
Visibility: 3 miles ( 5 km)
Ceiling: 1000 feet AGL
Clouds: overcast cloud deck at 1000 feet AGL
Weather: -RA BR  (light rain, mist)

METAR text: KBNA 170942Z 03004KT 8SM -RA OVC009 05/03 A2977 RMK AO2 RAB05 P0002 T00500028
Conditions at: KBNA (NASHVILLE , TN, US) observed 0942 UTC 17 February 2019
Temperature: 5.0°C (41°F)
Dewpoint: 2.8°C (37°F) [RH = 86%]
Pressure (altimeter): 29.77 inches Hg (1008.2 mb)
Winds: from the NNE (30 degrees) at 5 MPH (4 knots; 2.1 m/s)
Visibility: 8 miles (13 km)
Ceiling: 900 feet AGL
Clouds: overcast cloud deck at 900 feet AGL
Weather: -RA  (light rain)

METAR text: KBNA 170853Z 11004KT 10SM OVC014 05/02 A2976 RMK AO2 SLP079 T00500022 58019
Conditions at: KBNA (NASHVILLE , TN, US) observed 0853 UTC 17 February 2019
Temperature: 5.0°C (41°F)
Dewpoint: 2.2°C (36°F) [RH = 82%]
Pressure (altimeter): 29.76 inches Hg (1007.9 mb)
[Sea-level pressure: 1007.9 mb]
Winds: from the ESE (110 degrees) at 5 MPH (4 knots; 2.1 m/s)
Visibility: 10 or more miles (16+ km)
Ceiling: 1400 feet AGL
Clouds: overcast cloud deck at 1400 feet AGL
Weather: no significant weather observed at this time

METAR text: KBNA 170801Z 15005KT 10SM OVC015 05/02 A2979 RMK AO2 T00500017
Conditions at: KBNA (NASHVILLE , TN, US) observed 0801 UTC 17 February 2019
Temperature: 5.0°C (41°F)
Dewpoint: 1.7°C (35°F) [RH = 79%]
Pressure (altimeter): 29.79 inches Hg (1008.9 mb)
Winds: from the SSE (150 degrees) at 6 MPH (5 knots; 2.6 m/s)
Visibility: 10 or more miles (16+ km)
Ceiling: 1500 feet AGL
Clouds: overcast cloud deck at 1500 feet AGL
Weather: no significant weather observed at this time

METAR text: KBNA 170753Z 12007KT 10SM OVC013 05/02 A2978 RMK AO2 SLP085 T00500017
Conditions at: KBNA (NASHVILLE , TN, US) observed 0753 UTC 17 February 2019
Temperature: 5.0°C (41°F)
Dewpoint: 1.7°C (35°F) [RH = 79%]
Pressure (altimeter): 29.78 inches Hg (1008.5 mb)
[Sea-level pressure: 1008.5 mb]
Winds: from the ESE (120 degrees) at 8 MPH (7 knots; 3.6 m/s)
Visibility: 10 or more miles (16+ km)
Ceiling: 1300 feet AGL
Clouds: overcast cloud deck at 1300 feet AGL
Weather: no significant weather observed at this time

METAR text: KBNA 170653Z 14004KT 10SM OVC014 05/02 A2981 RMK AO2 SLP097 T00500017
Conditions at: KBNA (NASHVILLE , TN, US) observed 0653 UTC 17 February 2019
Temperature: 5.0°C (41°F)
Dewpoint: 1.7°C (35°F) [RH = 79%]
Pressure (altimeter): 29.81 inches Hg (1009.6 mb)
[Sea-level pressure: 1009.7 mb]
Winds: from the SE (140 degrees) at 5 MPH (4 knots; 2.1 m/s)
Visibility: 10 or more miles (16+ km)
Ceiling: 1400 feet AGL
Clouds: overcast cloud deck at 1400 feet AGL
Weather: no significant weather observed at this time

METAR text: KBNA 170553Z 12006KT 10SM OVC010 04/02 A2982 RMK AO2 SLP100 T00440017 10056 20033 400670006 58022
Conditions at: KBNA (NASHVILLE , TN, US) observed 0553 UTC 17 February 2019
Temperature: 4.4°C (40°F)
Dewpoint: 1.7°C (35°F) [RH = 83%]
Pressure (altimeter): 29.82 inches Hg (1009.9 mb)
[Sea-level pressure: 1010.0 mb]
Winds: from the ESE (120 degrees) at 7 MPH (6 knots; 3.1 m/s)
Visibility: 10 or more miles (16+ km)
Ceiling: 1000 feet AGL
Clouds: overcast cloud deck at 1000 feet AGL
Weather: no significant weather observed at this time

METAR text: KBNA 170453Z 07005KT 10SM OVC013 04/01 A2985 RMK AO2 PRESFR SLP111 T00440011
Conditions at: KBNA (NASHVILLE , TN, US) observed 0453 UTC 17 February 2019
Temperature: 4.4°C (40°F)
Dewpoint: 1.1°C (34°F) [RH = 79%]
Pressure (altimeter): 29.85 inches Hg (1010.9 mb)
[Sea-level pressure: 1011.1 mb]
Winds: from the ENE (70 degrees) at 6 MPH (5 knots; 2.6 m/s)
Visibility: 10 or more miles (16+ km)
Ceiling: 1300 feet AGL
Clouds: overcast cloud deck at 1300 feet AGL
Weather: no significant weather observed at this time

METAR text: KBNA 170419Z 00000KT 10SM OVC014 04/01 A2989 RMK AO2 T00440011
Conditions at: KBNA (NASHVILLE , TN, US) observed 0419 UTC 17 February 2019
Temperature: 4.4°C (40°F)
Dewpoint: 1.1°C (34°F) [RH = 79%]
Pressure (altimeter): 29.89 inches Hg (1012.3 mb)
Winds: calm
Visibility: 10 or more miles (16+ km)
Ceiling: 1400 feet AGL
Clouds: overcast cloud deck at 1400 feet AGL
Weather: no significant weather observed at this time

METAR text: KBNA 170353Z 00000KT 10SM BKN015 OVC170 04/01 A2988 RMK AO2 SLP123 T00390011
Conditions at: KBNA (NASHVILLE , TN, US) observed 0353 UTC 17 February 2019
Temperature: 3.9°C (39°F)
Dewpoint: 1.1°C (34°F) [RH = 82%]
Pressure (altimeter): 29.88 inches Hg (1011.9 mb)
[Sea-level pressure: 1012.3 mb]
Winds: calm
Visibility: 10 or more miles (16+ km)
Ceiling: 1500 feet AGL
Clouds: broken clouds at 1500 feet AGL
overcast cloud deck at 17000 feet AGL
Weather: no significant weather observed at this time

METAR text: KBNA 170349Z 24003KT 10SM BKN015 OVC170 04/01 A2989 RMK AO2
Conditions at: KBNA (NASHVILLE , TN, US) observed 0349 UTC 17 February 2019
Temperature: 4.0°C (39°F)
Dewpoint: 1.0°C (34°F) [RH = 81%]
Pressure (altimeter): 29.89 inches Hg (1012.3 mb)
Winds: from the WSW (240 degrees) at 3 MPH (3 knots; 1.5 m/s)
Visibility: 10 or more miles (16+ km)
Ceiling: 1500 feet AGL
Clouds: broken clouds at 1500 feet AGL
overcast cloud deck at 17000 feet AGL
Weather: no significant weather observed at this time

METAR text: KBNA 170253Z 11004KT 10SM BKN190 04/01 A2987 RMK AO2 SLP117 T00390006 58009
Conditions at: KBNA (NASHVILLE , TN, US) observed 0253 UTC 17 February 2019
Temperature: 3.9°C (39°F)
Dewpoint: 0.6°C (33°F) [RH = 79%]
Pressure (altimeter): 29.87 inches Hg (1011.6 mb)
[Sea-level pressure: 1011.7 mb]
Winds: from the ESE (110 degrees) at 5 MPH (4 knots; 2.1 m/s)
Visibility: 10 or more miles (16+ km)
Ceiling: 19000 feet AGL
Clouds: broken clouds at 19000 feet AGL
Weather: no significant weather observed at this time

METAR text: KBNA 170153Z 12003KT 10SM FEW025 BKN200 BKN250 04/01 A2990 RMK AO2 SLP127 T00390006
Conditions at: KBNA (NASHVILLE , TN, US) observed 0153 UTC 17 February 2019
Temperature: 3.9°C (39°F)
Dewpoint: 0.6°C (33°F) [RH = 79%]
Pressure (altimeter): 29.90 inches Hg (1012.6 mb)
[Sea-level pressure: 1012.7 mb]
Winds: from the ESE (120 degrees) at 3 MPH (3 knots; 1.5 m/s)
Visibility: 10 or more miles (16+ km)
Ceiling: 20000 feet AGL
Clouds: few clouds at 2500 feet AGL
broken clouds at 20000 feet AGL
broken clouds at 25000 feet AGL
Weather: no significant weather observed at this time

METAR text: KBNA 170053Z 12005KT 10SM SCT025 BKN250 04/01 A2990 RMK AO2 SLP128 T00440006
Conditions at: KBNA (NASHVILLE , TN, US) observed 0053 UTC 17 February 2019
Temperature: 4.4°C (40°F)
Dewpoint: 0.6°C (33°F) [RH = 76%]
Pressure (altimeter): 29.90 inches Hg (1012.6 mb)
[Sea-level pressure: 1012.8 mb]
Winds: from the ESE (120 degrees) at 6 MPH (5 knots; 2.6 m/s)
Visibility: 10 or more miles (16+ km)
Ceiling: 25000 feet AGL
Clouds: scattered clouds at 2500 feet AGL
broken clouds at 25000 feet AGL
Weather: no significant weather observed at this time

METAR text: KBNA 162353Z 15006KT 10SM OVC025 06/01 A2990 RMK AO2 SLP127 T00560011 10067 20039 55001
Conditions at: KBNA (NASHVILLE , TN, US) observed 2353 UTC 16 February 2019
Temperature: 5.6°C (42°F)
Dewpoint: 1.1°C (34°F) [RH = 73%]
Pressure (altimeter): 29.90 inches Hg (1012.6 mb)
[Sea-level pressure: 1012.7 mb]
Winds: from the SSE (150 degrees) at 7 MPH (6 knots; 3.1 m/s)
Visibility: 10 or more miles (16+ km)
Ceiling: 2500 feet AGL
Clouds: overcast cloud deck at 2500 feet AGL
Weather: no significant weather observed at this time

METAR text: KBNA 162253Z 05007KT 10SM OVC025 06/00 A2989 RMK AO2 SLP123 T00610000
Conditions at: KBNA (NASHVILLE , TN, US) observed 2253 UTC 16 February 2019
Temperature: 6.1°C (43°F)
Dewpoint: 0.0°C (32°F) [RH = 65%]
Pressure (altimeter): 29.89 inches Hg (1012.3 mb)
[Sea-level pressure: 1012.3 mb]
Winds: from the NE (50 degrees) at 8 MPH (7 knots; 3.6 m/s)
Visibility: 10 or more miles (16+ km)
Ceiling: 2500 feet AGL
Clouds: overcast cloud deck at 2500 feet AGL
Weather: no significant weather observed at this time

METAR text: KBNA 162153Z 01005KT 10SM OVC024 07/00 A2990 RMK AO2 SLP127 T00670000
Conditions at: KBNA (NASHVILLE , TN, US) observed 2153 UTC 16 February 2019
Temperature: 6.7°C (44°F)
Dewpoint: 0.0°C (32°F) [RH = 62%]
Pressure (altimeter): 29.90 inches Hg (1012.6 mb)
[Sea-level pressure: 1012.7 mb]
Winds: from the N (10 degrees) at 6 MPH (5 knots; 2.6 m/s)
Visibility: 10 or more miles (16+ km)
Ceiling: 2400 feet AGL
Clouds: overcast cloud deck at 2400 feet AGL
Weather: no significant weather observed at this time

METAR text: KBNA 162053Z VRB04KT 10SM OVC022 06/00 A2990 RMK AO2 SLP127 T00610000 56015
Conditions at: KBNA (NASHVILLE , TN, US) observed 2053 UTC 16 February 2019
Temperature: 6.1°C (43°F)
Dewpoint: 0.0°C (32°F) [RH = 65%]
Pressure (altimeter): 29.90 inches Hg (1012.6 mb)
[Sea-level pressure: 1012.7 mb]
Winds: variable direction winds at 5 MPH (4 knots; 2.1 m/s)
Visibility: 10 or more miles (16+ km)
Ceiling: 2200 feet AGL
Clouds: overcast cloud deck at 2200 feet AGL
Weather: no significant weather observed at this time

METAR text: KBNA 161953Z 03005KT 10SM BKN017 OVC020 06/M01 A2990 RMK AO2 SLP127 T00561006
Conditions at: KBNA (NASHVILLE , TN, US) observed 1953 UTC 16 February 2019
Temperature: 5.6°C (42°F)
Dewpoint: -0.6°C (31°F) [RH = 64%]
Pressure (altimeter): 29.90 inches Hg (1012.6 mb)
[Sea-level pressure: 1012.7 mb]
Winds: from the NNE (30 degrees) at 6 MPH (5 knots; 2.6 m/s)
Visibility: 10 or more miles (16+ km)
Ceiling: 1700 feet AGL
Clouds: broken clouds at 1700 feet AGL
overcast cloud deck at 2000 feet AGL
Weather: no significant weather observed at this time

Forecast for: KBNA (NASHVILLE , TN, US)
Text: KBNA 180520Z 1806/1906 30007KT P6SM OVC018
Forecast period: 0600 to 0700 UTC 18 February 2019
Forecast type: FROM: standard forecast or significant change
Winds: from the WNW (300 degrees) at 8 MPH (7 knots; 3.6 m/s)
Visibility: 6 or more miles 10+ km)
Ceiling: 1800 feet AGL
Clouds: overcast cloud deck at 1800 feet AGL
Weather: no significant weather forecast for this period
Text: FM180700 32009G14KT P6SM OVC015
Forecast period: 0700 to 1200 UTC 18 February 2019
Forecast type: FROM: standard forecast or significant change
Winds: from the NW (320 degrees) at 10 MPH (9 knots; 4.6 m/s)
gusting to 16 MPH (14 knots; 7.2 m/s)
Visibility: 6 or more miles 10+ km)
Ceiling: 1500 feet AGL
Clouds: overcast cloud deck at 1500 feet AGL
Weather: no significant weather forecast for this period
Text: FM181200 32010KT P6SM BKN250
Forecast period: 1200 to 2300 UTC 18 February 2019
Forecast type: FROM: standard forecast or significant change
Winds: from the NW (320 degrees) at 12 MPH (10 knots; 5.1 m/s)
Visibility: 6 or more miles 10+ km)
Ceiling: 25000 feet AGL
Clouds: broken clouds at 25000 feet AGL
Weather: no significant weather forecast for this period
Text: FM182300 01010KT P6SM BKN250
Forecast period: 2300 UTC 18 February 2019 to 0600 UTC 19 February 2019
Forecast type: FROM: standard forecast or significant change
Winds: from the N (10 degrees) at 12 MPH (10 knots; 5.1 m/s)
Visibility: 6 or more miles 10+ km)
Ceiling: 25000 feet AGL
Clouds: broken clouds at 25000 feet AGL
Weather: no significant weather forecast for this period